sensor_id;sensor_type;location;lat;lon;timestamp;P1;durP1;ratioP1;P2;durP2;ratioP2
41436;SDS011;27178;49.460;10.850;2023-11-19T00:00:18;5.10;;;4.60;;
41436;SDS011;27178;49.460;10.850;2023-11-19T00:02:49;4.13;;;3.83;;
41436;SDS011;27178;49.460;10.850;2023-11-19T00:05:18;3.30;;;3.10;;
41436;SDS011;27178;49.460;10.850;2023-11-19T00:07:46;3.40;;;3.10;;
41436;SDS011;27178;49.460;10.850;2023-11-19T00:10:15;3.20;;;3.00;;
41436;SDS011;27178;49.460;10.850;2023-11-19T00:12:48;3.10;;;2.90;;
41436;SDS011;27178;49.460;10.850;2023-11-19T00:15:17;3.27;;;3.07;;
41436;SDS011;27178;49.460;10.850;2023-11-19T00:17:46;3.00;;;2.70;;
41436;SDS011;27178;49.460;10.850;2023-11-19T00:20:16;3.33;;;3.13;;
41436;SDS011;27178;49.460;10.850;2023-11-19T00:22:46;3.17;;;2.97;;
41436;SDS011;27178;49.460;10.850;2023-11-19T00:25:17;3.20;;;3.00;;
41436;SDS011;27178;49.460;10.850;2023-11-19T00:27:48;3.10;;;2.90;;
41436;SDS011;27178;49.460;10.850;2023-11-19T00:30:17;3.03;;;2.83;;
41436;SDS011;27178;49.460;10.850;2023-11-19T00:32:46;3.13;;;2.93;;
41436;SDS011;27178;49.460;10.850;2023-11-19T00:35:14;8.40;;;3.17;;
41436;SDS011;27178;49.460;10.850;2023-11-19T00:37:42;3.20;;;3.00;;
41436;SDS011;27178;49.460;10.850;2023-11-19T00:40:12;6.60;;;3.40;;
41436;SDS011;27178;49.460;10.850;2023-11-19T00:42:43;3.20;;;3.00;;
41436;SDS011;27178;49.460;10.850;2023-11-19T00:45:13;3.23;;;3.03;;
41436;SDS011;27178;49.460;10.850;2023-11-19T00:47:41;3.43;;;3.23;;
41436;SDS011;27178;49.460;10.850;2023-11-19T00:50:09;3.57;;;3.07;;
41436;SDS011;27178;49.460;10.850;2023-11-19T00:52:39;3.83;;;3.53;;
41436;SDS011;27178;49.460;10.850;2023-11-19T00:55:08;4.07;;;3.50;;
41436;SDS011;27178;49.460;10.850;2023-11-19T00:57:38;4.13;;;3.60;;
41436;SDS011;27178;49.460;10.850;2023-11-19T01:00:06;4.50;;;3.70;;
41436;SDS011;27178;49.460;10.850;2023-11-19T01:02:47;3.97;;;3.67;;
41436;SDS011;27178;49.460;10.850;2023-11-19T01:05:18;4.00;;;3.60;;
41436;SDS011;27178;49.460;10.850;2023-11-19T01:07:49;3.87;;;3.53;;
41436;SDS011;27178;49.460;10.850;2023-11-19T01:10:21;3.77;;;3.47;;
41436;SDS011;27178;49.460;10.850;2023-11-19T01:12:49;3.40;;;3.20;;
41436;SDS011;27178;49.460;10.850;2023-11-19T01:15:18;3.40;;;3.20;;
41436;SDS011;27178;49.460;10.850;2023-11-19T01:17:48;4.03;;;3.73;;
41436;SDS011;27178;49.460;10.850;2023-11-19T01:20:19;3.97;;;3.70;;
41436;SDS011;27178;49.460;10.850;2023-11-19T01:22:48;3.73;;;3.43;;
41436;SDS011;27178;49.460;10.850;2023-11-19T01:25:16;4.33;;;4.03;;
41436;SDS011;27178;49.460;10.850;2023-11-19T01:27:46;4.30;;;4.00;;
41436;SDS011;27178;49.460;10.850;2023-11-19T01:30:14;3.80;;;3.50;;
41436;SDS011;27178;49.460;10.850;2023-11-19T01:32:42;3.70;;;3.40;;
41436;SDS011;27178;49.460;10.850;2023-11-19T01:35:12;4.77;;;4.37;;
41436;SDS011;27178;49.460;10.850;2023-11-19T01:37:41;4.27;;;3.97;;
41436;SDS011;27178;49.460;10.850;2023-11-19T01:40:09;4.23;;;3.93;;
41436;SDS011;27178;49.460;10.850;2023-11-19T01:42:39;4.30;;;4.00;;
41436;SDS011;27178;49.460;10.850;2023-11-19T01:45:08;6.43;;;4.33;;
41436;SDS011;27178;49.460;10.850;2023-11-19T01:47:37;4.37;;;4.07;;
41436;SDS011;27178;49.460;10.850;2023-11-19T01:50:07;4.33;;;4.03;;
41436;SDS011;27178;49.460;10.850;2023-11-19T01:52:37;4.53;;;4.13;;
41436;SDS011;27178;49.460;10.850;2023-11-19T01:55:06;4.33;;;4.03;;
41436;SDS011;27178;49.460;10.850;2023-11-19T01:57:37;4.40;;;4.10;;
41436;SDS011;27178;49.460;10.850;2023-11-19T02:00:08;4.57;;;4.17;;
41436;SDS011;27178;49.460;10.850;2023-11-19T02:02:39;4.60;;;4.23;;
41436;SDS011;27178;49.460;10.850;2023-11-19T02:05:08;4.10;;;3.80;;
41436;SDS011;27178;49.460;10.850;2023-11-19T02:07:39;4.23;;;3.93;;
41436;SDS011;27178;49.460;10.850;2023-11-19T02:10:08;4.17;;;3.87;;
41436;SDS011;27178;49.460;10.850;2023-11-19T02:12:41;4.23;;;3.93;;
41436;SDS011;27178;49.460;10.850;2023-11-19T02:15:11;4.53;;;4.23;;
41436;SDS011;27178;49.460;10.850;2023-11-19T02:17:39;4.73;;;4.33;;
41436;SDS011;27178;49.460;10.850;2023-11-19T02:20:08;4.67;;;4.37;;
41436;SDS011;27178;49.460;10.850;2023-11-19T02:22:40;5.57;;;4.27;;
41436;SDS011;27178;49.460;10.850;2023-11-19T02:25:15;6.80;;;6.10;;
41436;SDS011;27178;49.460;10.850;2023-11-19T02:27:51;7.17;;;6.57;;
41436;SDS011;27178;49.460;10.850;2023-11-19T02:30:23;5.80;;;5.40;;
41436;SDS011;27178;49.460;10.850;2023-11-19T02:32:53;7.93;;;7.13;;
41436;SDS011;27178;49.460;10.850;2023-11-19T02:35:23;7.33;;;6.73;;
41436;SDS011;27178;49.460;10.850;2023-11-19T02:37:52;7.47;;;6.80;;
41436;SDS011;27178;49.460;10.850;2023-11-19T02:40:21;6.33;;;5.80;;
41436;SDS011;27178;49.460;10.850;2023-11-19T02:42:53;6.97;;;6.43;;
41436;SDS011;27178;49.460;10.850;2023-11-19T02:45:22;7.30;;;6.70;;
41436;SDS011;27178;49.460;10.850;2023-11-19T02:47:52;7.40;;;6.53;;
41436;SDS011;27178;49.460;10.850;2023-11-19T02:50:21;9.50;;;8.57;;
41436;SDS011;27178;49.460;10.850;2023-11-19T02:52:53;7.30;;;6.63;;
41436;SDS011;27178;49.460;10.850;2023-11-19T02:55:24;6.23;;;5.80;;
41436;SDS011;27178;49.460;10.850;2023-11-19T02:57:56;6.43;;;5.93;;
41436;SDS011;27178;49.460;10.850;2023-11-19T03:00:26;6.53;;;6.00;;
41436;SDS011;27178;49.460;10.850;2023-11-19T03:03:02;7.87;;;5.93;;
41436;SDS011;27178;49.460;10.850;2023-11-19T03:05:45;7.77;;;6.67;;
41436;SDS011;27178;49.460;10.850;2023-11-19T03:08:14;6.90;;;6.30;;
41436;SDS011;27178;49.460;10.850;2023-11-19T03:10:46;7.67;;;7.03;;
41436;SDS011;27178;49.460;10.850;2023-11-19T03:13:16;8.33;;;7.53;;
41436;SDS011;27178;49.460;10.850;2023-11-19T03:15:44;7.53;;;6.93;;
41436;SDS011;27178;49.460;10.850;2023-11-19T03:18:13;6.57;;;5.97;;
41436;SDS011;27178;49.460;10.850;2023-11-19T03:20:41;7.73;;;7.13;;
41436;SDS011;27178;49.460;10.850;2023-11-19T03:23:10;7.00;;;6.33;;
41436;SDS011;27178;49.460;10.850;2023-11-19T03:25:38;5.77;;;5.37;;
41436;SDS011;27178;49.460;10.850;2023-11-19T03:28:07;6.40;;;5.90;;
41436;SDS011;27178;49.460;10.850;2023-11-19T03:30:38;6.73;;;6.13;;
41436;SDS011;27178;49.460;10.850;2023-11-19T03:33:07;5.93;;;5.43;;
41436;SDS011;27178;49.460;10.850;2023-11-19T03:35:35;6.30;;;5.80;;
41436;SDS011;27178;49.460;10.850;2023-11-19T03:38:04;6.47;;;5.97;;
41436;SDS011;27178;49.460;10.850;2023-11-19T03:40:32;6.67;;;5.93;;
41436;SDS011;27178;49.460;10.850;2023-11-19T03:43:01;7.03;;;6.53;;
41436;SDS011;27178;49.460;10.850;2023-11-19T03:45:31;6.20;;;5.70;;
41436;SDS011;27178;49.460;10.850;2023-11-19T03:48:00;6.47;;;5.97;;
41436;SDS011;27178;49.460;10.850;2023-11-19T03:50:29;6.30;;;5.80;;
41436;SDS011;27178;49.460;10.850;2023-11-19T03:52:57;6.00;;;5.60;;
41436;SDS011;27178;49.460;10.850;2023-11-19T03:55:26;6.50;;;6.00;;
41436;SDS011;27178;49.460;10.850;2023-11-19T03:57:53;5.80;;;5.40;;
41436;SDS011;27178;49.460;10.850;2023-11-19T04:00:21;6.30;;;5.80;;
41436;SDS011;27178;49.460;10.850;2023-11-19T04:02:50;5.90;;;5.40;;
41436;SDS011;27178;49.460;10.850;2023-11-19T04:05:20;6.17;;;5.67;;
41436;SDS011;27178;49.460;10.850;2023-11-19T04:07:49;6.45;;;6.05;;
41436;SDS011;27178;49.460;10.850;2023-11-19T04:10:17;5.83;;;5.43;;
41436;SDS011;27178;49.460;10.850;2023-11-19T04:12:47;5.53;;;5.13;;
41436;SDS011;27178;49.460;10.850;2023-11-19T04:15:15;6.20;;;5.70;;
41436;SDS011;27178;49.460;10.850;2023-11-19T04:17:44;5.90;;;5.40;;
41436;SDS011;27178;49.460;10.850;2023-11-19T04:20:12;5.43;;;5.03;;
41436;SDS011;27178;49.460;10.850;2023-11-19T04:22:42;5.30;;;4.90;;
41436;SDS011;27178;49.460;10.850;2023-11-19T04:25:11;4.80;;;4.40;;
41436;SDS011;27178;49.460;10.850;2023-11-19T04:27:40;5.37;;;4.97;;
41436;SDS011;27178;49.460;10.850;2023-11-19T04:30:12;4.67;;;4.37;;
41436;SDS011;27178;49.460;10.850;2023-11-19T04:32:41;5.27;;;4.83;;
41436;SDS011;27178;49.460;10.850;2023-11-19T04:35:10;4.90;;;4.50;;
41436;SDS011;27178;49.460;10.850;2023-11-19T04:37:39;4.53;;;4.13;;
41436;SDS011;27178;49.460;10.850;2023-11-19T04:40:08;4.60;;;4.17;;
41436;SDS011;27178;49.460;10.850;2023-11-19T04:42:38;4.73;;;4.43;;
41436;SDS011;27178;49.460;10.850;2023-11-19T04:45:07;4.07;;;3.77;;
41436;SDS011;27178;49.460;10.850;2023-11-19T04:47:37;4.10;;;3.80;;
41436;SDS011;27178;49.460;10.850;2023-11-19T04:50:06;4.10;;;3.80;;
41436;SDS011;27178;49.460;10.850;2023-11-19T04:52:37;4.00;;;3.72;;
41436;SDS011;27178;49.460;10.850;2023-11-19T04:55:10;3.70;;;3.40;;
41436;SDS011;27178;49.460;10.850;2023-11-19T04:57:39;3.40;;;3.17;;
41436;SDS011;27178;49.460;10.850;2023-11-19T05:00:08;3.07;;;2.87;;
41436;SDS011;27178;49.460;10.850;2023-11-19T05:02:40;3.27;;;2.60;;
41436;SDS011;27178;49.460;10.850;2023-11-19T05:05:09;2.90;;;2.53;;
41436;SDS011;27178;49.460;10.850;2023-11-19T05:07:38;2.80;;;2.60;;
41436;SDS011;27178;49.460;10.850;2023-11-19T05:10:07;2.70;;;2.50;;
41436;SDS011;27178;49.460;10.850;2023-11-19T05:12:37;1.90;;;1.80;;
41436;SDS011;27178;49.460;10.850;2023-11-19T05:15:08;2.37;;;2.17;;
41436;SDS011;27178;49.460;10.850;2023-11-19T05:17:38;1.80;;;1.70;;
41436;SDS011;27178;49.460;10.850;2023-11-19T05:20:07;1.73;;;1.63;;
41436;SDS011;27178;49.460;10.850;2023-11-19T05:22:40;1.90;;;1.80;;
41436;SDS011;27178;49.460;10.850;2023-11-19T05:25:09;1.63;;;1.53;;
41436;SDS011;27178;49.460;10.850;2023-11-19T05:27:39;1.50;;;1.40;;
41436;SDS011;27178;49.460;10.850;2023-11-19T05:30:08;1.90;;;1.80;;
41436;SDS011;27178;49.460;10.850;2023-11-19T05:32:37;1.50;;;1.40;;
41436;SDS011;27178;49.460;10.850;2023-11-19T05:35:07;1.80;;;1.70;;
41436;SDS011;27178;49.460;10.850;2023-11-19T05:37:35;1.70;;;1.60;;
41436;SDS011;27178;49.460;10.850;2023-11-19T05:40:05;1.48;;;1.38;;
41436;SDS011;27178;49.460;10.850;2023-11-19T05:42:43;1.20;;;1.13;;
41436;SDS011;27178;49.460;10.850;2023-11-19T05:45:12;1.37;;;1.03;;
41436;SDS011;27178;49.460;10.850;2023-11-19T05:47:40;1.20;;;1.20;;
41436;SDS011;27178;49.460;10.850;2023-11-19T05:50:10;1.40;;;1.20;;
41436;SDS011;27178;49.460;10.850;2023-11-19T05:52:38;1.50;;;1.40;;
41436;SDS011;27178;49.460;10.850;2023-11-19T05:55:06;1.17;;;1.07;;
41436;SDS011;27178;49.460;10.850;2023-11-19T05:57:37;1.20;;;1.00;;
41436;SDS011;27178;49.460;10.850;2023-11-19T06:00:10;0.77;;;0.77;;
41436;SDS011;27178;49.460;10.850;2023-11-19T06:02:42;1.00;;;1.00;;
41436;SDS011;27178;49.460;10.850;2023-11-19T06:05:11;2.33;;;0.73;;
41436;SDS011;27178;49.460;10.850;2023-11-19T06:07:39;0.87;;;0.87;;
41436;SDS011;27178;49.460;10.850;2023-11-19T06:10:08;0.73;;;0.73;;
41436;SDS011;27178;49.460;10.850;2023-11-19T06:12:38;0.70;;;0.70;;
41436;SDS011;27178;49.460;10.850;2023-11-19T06:15:09;0.60;;;0.60;;
41436;SDS011;27178;49.460;10.850;2023-11-19T06:17:38;0.55;;;0.47;;
41436;SDS011;27178;49.460;10.850;2023-11-19T06:20:07;0.60;;;0.60;;
41436;SDS011;27178;49.460;10.850;2023-11-19T06:22:38;0.43;;;0.43;;
41436;SDS011;27178;49.460;10.850;2023-11-19T06:25:09;0.60;;;0.60;;
41436;SDS011;27178;49.460;10.850;2023-11-19T06:27:38;0.40;;;0.40;;
41436;SDS011;27178;49.460;10.850;2023-11-19T06:30:07;0.43;;;0.43;;
41436;SDS011;27178;49.460;10.850;2023-11-19T06:32:38;3.40;;;0.75;;
41436;SDS011;27178;49.460;10.850;2023-11-19T06:35:06;0.35;;;0.30;;
41436;SDS011;27178;49.460;10.850;2023-11-19T06:37:38;0.55;;;0.40;;
41436;SDS011;27178;49.460;10.850;2023-11-19T06:40:12;0.40;;;0.40;;
41436;SDS011;27178;49.460;10.850;2023-11-19T06:42:42;0.37;;;0.37;;
41436;SDS011;27178;49.460;10.850;2023-11-19T06:45:11;0.40;;;0.40;;
41436;SDS011;27178;49.460;10.850;2023-11-19T06:47:41;0.47;;;0.40;;
41436;SDS011;27178;49.460;10.850;2023-11-19T06:50:09;0.40;;;0.30;;
41436;SDS011;27178;49.460;10.850;2023-11-19T06:52:39;0.30;;;0.30;;
41436;SDS011;27178;49.460;10.850;2023-11-19T06:55:07;0.50;;;0.35;;
41436;SDS011;27178;49.460;10.850;2023-11-19T06:57:36;0.35;;;0.35;;
41436;SDS011;27178;49.460;10.850;2023-11-19T07:00:05;0.30;;;0.30;;
41436;SDS011;27178;49.460;10.850;2023-11-19T07:02:35;0.30;;;0.30;;
41436;SDS011;27178;49.460;10.850;2023-11-19T07:05:05;0.73;;;0.45;;
41436;SDS011;27178;49.460;10.850;2023-11-19T07:07:35;0.60;;;0.60;;
41436;SDS011;27178;49.460;10.850;2023-11-19T07:10:03;2.88;;;0.95;;
41436;SDS011;27178;49.460;10.850;2023-11-19T07:12:36;0.50;;;0.50;;
41436;SDS011;27178;49.460;10.850;2023-11-19T07:15:05;1.02;;;0.50;;
41436;SDS011;27178;49.460;10.850;2023-11-19T07:17:34;0.50;;;0.50;;
41436;SDS011;27178;49.460;10.850;2023-11-19T07:20:03;1.00;;;0.43;;
41436;SDS011;27178;49.460;10.850;2023-11-19T07:22:34;0.43;;;0.40;;
41436;SDS011;27178;49.460;10.850;2023-11-19T07:25:05;0.32;;;0.32;;
41436;SDS011;27178;49.460;10.850;2023-11-19T07:27:33;0.47;;;0.40;;
41436;SDS011;27178;49.460;10.850;2023-11-19T07:30:02;0.65;;;0.25;;
41436;SDS011;27178;49.460;10.850;2023-11-19T07:32:31;0.32;;;0.32;;
41436;SDS011;27178;49.460;10.850;2023-11-19T07:35:00;0.40;;;0.40;;
41436;SDS011;27178;49.460;10.850;2023-11-19T07:37:30;0.50;;;0.50;;
41436;SDS011;27178;49.460;10.850;2023-11-19T07:39:58;0.32;;;0.32;;
41436;SDS011;27178;49.460;10.850;2023-11-19T07:42:27;0.35;;;0.35;;
41436;SDS011;27178;49.460;10.850;2023-11-19T07:44:55;2.38;;;0.60;;
41436;SDS011;27178;49.460;10.850;2023-11-19T07:47:24;0.38;;;0.38;;
41436;SDS011;27178;49.460;10.850;2023-11-19T07:49:52;0.50;;;0.50;;
41436;SDS011;27178;49.460;10.850;2023-11-19T07:52:20;0.75;;;0.70;;
41436;SDS011;27178;49.460;10.850;2023-11-19T07:54:50;0.63;;;0.63;;
41436;SDS011;27178;49.460;10.850;2023-11-19T07:57:18;0.38;;;0.38;;
41436;SDS011;27178;49.460;10.850;2023-11-19T07:59:47;1.15;;;1.05;;
41436;SDS011;27178;49.460;10.850;2023-11-19T08:02:15;1.27;;;0.80;;
41436;SDS011;27178;49.460;10.850;2023-11-19T08:04:44;6.72;;;0.90;;
41436;SDS011;27178;49.460;10.850;2023-11-19T08:07:13;0.70;;;0.70;;
41436;SDS011;27178;49.460;10.850;2023-11-19T08:09:42;0.70;;;0.70;;
41436;SDS011;27178;49.460;10.850;2023-11-19T08:12:12;0.60;;;0.60;;
41436;SDS011;27178;49.460;10.850;2023-11-19T08:14:41;1.10;;;0.90;;
41436;SDS011;27178;49.460;10.850;2023-11-19T08:17:10;0.98;;;0.90;;
41436;SDS011;27178;49.460;10.850;2023-11-19T08:19:39;0.88;;;0.65;;
41436;SDS011;27178;49.460;10.850;2023-11-19T08:22:07;0.82;;;0.82;;
41436;SDS011;27178;49.460;10.850;2023-11-19T08:24:36;1.10;;;1.00;;
41436;SDS011;27178;49.460;10.850;2023-11-19T08:27:04;1.80;;;1.00;;
41436;SDS011;27178;49.460;10.850;2023-11-19T08:29:34;0.80;;;0.80;;
41436;SDS011;27178;49.460;10.850;2023-11-19T08:32:03;1.20;;;0.68;;
41436;SDS011;27178;49.460;10.850;2023-11-19T08:34:32;1.00;;;1.00;;
41436;SDS011;27178;49.460;10.850;2023-11-19T08:37:01;0.90;;;0.90;;
41436;SDS011;27178;49.460;10.850;2023-11-19T08:39:30;1.77;;;0.90;;
41436;SDS011;27178;49.460;10.850;2023-11-19T08:41:58;1.00;;;0.80;;
41436;SDS011;27178;49.460;10.850;2023-11-19T08:44:26;0.95;;;0.90;;
41436;SDS011;27178;49.460;10.850;2023-11-19T08:46:57;1.00;;;0.90;;
41436;SDS011;27178;49.460;10.850;2023-11-19T08:49:25;1.10;;;1.00;;
41436;SDS011;27178;49.460;10.850;2023-11-19T08:51:53;0.95;;;0.70;;
41436;SDS011;27178;49.460;10.850;2023-11-19T08:54:22;1.40;;;0.90;;
41436;SDS011;27178;49.460;10.850;2023-11-19T08:56:51;1.58;;;0.80;;
41436;SDS011;27178;49.460;10.850;2023-11-19T08:59:19;0.90;;;0.90;;
41436;SDS011;27178;49.460;10.850;2023-11-19T09:01:48;2.13;;;0.70;;
41436;SDS011;27178;49.460;10.850;2023-11-19T09:04:18;0.68;;;0.68;;
41436;SDS011;27178;49.460;10.850;2023-11-19T09:06:49;0.80;;;0.80;;
41436;SDS011;27178;49.460;10.850;2023-11-19T09:09:18;1.17;;;0.80;;
41436;SDS011;27178;49.460;10.850;2023-11-19T09:11:46;2.08;;;0.93;;
41436;SDS011;27178;49.460;10.850;2023-11-19T09:14:15;1.75;;;0.70;;
41436;SDS011;27178;49.460;10.850;2023-11-19T09:16:44;1.60;;;1.10;;
41436;SDS011;27178;49.460;10.850;2023-11-19T09:19:13;2.08;;;1.00;;
41436;SDS011;27178;49.460;10.850;2023-11-19T09:21:42;4.13;;;1.10;;
41436;SDS011;27178;49.460;10.850;2023-11-19T09:24:11;1.25;;;1.00;;
41436;SDS011;27178;49.460;10.850;2023-11-19T09:26:42;1.10;;;1.00;;
41436;SDS011;27178;49.460;10.850;2023-11-19T09:29:11;0.60;;;0.60;;
41436;SDS011;27178;49.460;10.850;2023-11-19T09:31:40;0.90;;;0.80;;
41436;SDS011;27178;49.460;10.850;2023-11-19T09:34:09;1.45;;;1.10;;
41436;SDS011;27178;49.460;10.850;2023-11-19T09:36:37;1.90;;;1.10;;
41436;SDS011;27178;49.460;10.850;2023-11-19T09:39:11;1.10;;;0.93;;
41436;SDS011;27178;49.460;10.850;2023-11-19T09:41:41;2.97;;;1.20;;
41436;SDS011;27178;49.460;10.850;2023-11-19T09:44:11;7.85;;;5.22;;
41436;SDS011;27178;49.460;10.850;2023-11-19T09:46:40;6.60;;;6.00;;
41436;SDS011;27178;49.460;10.850;2023-11-19T09:49:09;4.50;;;4.10;;
41436;SDS011;27178;49.460;10.850;2023-11-19T09:51:39;2.55;;;2.20;;
